Annapolis, MD

7:29 AM EST on March 02, 2015 (GMT -0500)
Stevensville | Change Station
CLOSE
Current Station
Airport
Location: Stevensville,
Elevation: 49 ft
Nearby Weather Stations

Elev 49 ft 38.98 °N, 76.33 °W | Updated 14 minutes ago

Overcast
Overcast
32 °F
Feels Like 32 °F
N
0
Wind Variable Wind from North

Today
High -- | Low -- °F
--% Chance of Precip.
Yesterday
High -- | Low -- °F
Precip. -- in
6:37 AM 5:59 PM
Waxing Gibbous, 91% visible
Pressure 30.14 in
Visibility 1.5 miles
Clouds
Dew Point 32 °F
Humidity 100%
Rainfall 0.00 in
Snow Depth Not available.
UV Not available.
Pollen .60 out of 12
Air Quality Not available.
Flu Activity Not available.
METAR KW29 021215Z AUTO 00000KT 1 1/2SM BR 00/00 A3014 RMK AO1

More Conditions Fewer Conditions

Pressure 30.14 in
Visibility 1.5 miles
Clouds
Dew Point 32 °F
Humidity 100%
Rainfall 0.00 in
Snow Depth Not available.
UV Not available.
Pollen .60 out of 12
Air Quality Not available.
Flu Activity Not available.
METAR KW29 021215Z AUTO 00000KT 1 1/2SM BR 00/00 A3014 RMK AO1

More Conditions Fewer Conditions

10-Day Weather Forecast

Almanac

Astronomy

Mar. 02, 2015 Rise Set
Actual Time
Civil Twilight
Nautical Twilight
Astronomical Twilight
Moon
Length of Visible Light
Length of Day
Tomorrow will be .
, % of the Moon is Illuminated

Today's Extremes

State Highs State Lows

Community

WunderPhotos

Upload Photos

1,801,772 photos uploaded!

WunderBlogs® & News

Nearby

Air Quality

  Air Quality AQ Index Pollutant
Not available.

Snow Depth

Station Depth Elevation

Earthquake Activity

City Distance Mag. Time & Date
Minimum magnitude displayed is 2.5.

Coastal Water Temperatures

Place Temperature

Nearby Weather Stations

Dense Fog Advisory
Statement as of 6:52 AM EST on March 02, 2015

... Dense fog advisory remains in effect until 9 am EST this
morning...

* visibilities... one quarter mile or less.

* Impacts... areas of dense fog will cause sudden reductions in
visibility and rapidly changing conditions. Icy conditions are
also possible this morning.

Precautionary/preparedness actions...

A dense fog advisory means visibilities will frequently be
reduced to less than one quarter mile. If driving... slow down...
use your low-beam headlights... and leave plenty of distance ahead
of you.




Special Statement
Statement as of 4:26 AM EST on March 02, 2015


... Icy conditions and patchy dense fog expected this morning...

Ice will persist on untreated surfaces this morning as air
temperatures remain around freezing. Patchy dense fog will
combine with residual ice and may result in patchy slick spots
overnight especially on untreated surfaces. Visibilities may drop
to a quarter mile or less at times especially around the
Washington DC Metro.

Please use extra caution if traveling... be prepared for icy
patches and sudden drops in visibilities on roadways. Sidewalks
are likely quite icy and require particular caution.